createdAt,value
2023-02-26T00:01:51.972Z,95837.58
2023-02-26T00:04:20.469Z,95837.65
2023-02-26T00:06:58.781Z,95837.14
2023-02-26T00:09:48.564Z,95836.16
2023-02-26T00:12:17.585Z,95836.25
2023-02-26T00:14:46.520Z,95832.69
2023-02-26T00:17:31.091Z,95830.46
2023-02-26T00:20:00.341Z,95825.52
2023-02-26T00:22:28.916Z,95825.91
2023-02-26T00:24:58.717Z,95825.95
2023-02-26T00:27:27.103Z,95823.27
2023-02-26T00:29:55.629Z,95827.98
2023-02-26T00:32:24.841Z,95825.80
2023-02-26T00:34:54.531Z,95825.42
2023-02-26T00:37:45.180Z,95831.73
2023-02-26T00:41:01.690Z,95839.51
2023-02-26T00:43:30.509Z,95849.05
2023-02-26T00:46:46.796Z,95853.39
2023-02-26T00:49:32.143Z,95862.55
2023-02-26T00:52:05.383Z,95866.77
2023-02-26T00:54:33.931Z,95865.45
2023-02-26T00:57:04.462Z,95864.59
2023-02-26T00:59:32.883Z,95870.27
2023-02-26T01:02:03.474Z,95874.19
2023-02-26T01:04:33.042Z,95870.73
2023-02-26T01:07:01.357Z,95868.84
2023-02-26T01:09:36.018Z,95865.88
2023-02-26T01:12:08.488Z,95862.83
2023-02-26T01:14:37.545Z,95854.56
2023-02-26T01:17:35.375Z,95848.79
2023-02-26T01:20:19.715Z,95841.84
2023-02-26T01:22:55.769Z,95833.98
2023-02-26T01:25:29.442Z,95833.47
2023-02-26T01:27:58.198Z,95827.47
2023-02-26T01:30:27.124Z,95833.38
2023-02-26T01:33:13.671Z,95839.23
2023-02-26T01:35:49.095Z,95837.46
2023-02-26T01:38:36.397Z,95837.71
2023-02-26T01:41:30.170Z,95835.08
2023-02-26T01:44:24.602Z,95835.52
2023-02-26T01:47:17.725Z,95826.71
2023-02-26T01:49:46.178Z,95820.27
2023-02-26T01:52:35.628Z,95817.98
2023-02-26T01:55:06.087Z,95811.29
2023-02-26T01:57:35.846Z,95810.17
2023-02-26T02:00:05.732Z,95811.27
2023-02-26T02:02:40.615Z,95815.58
2023-02-26T02:05:22.458Z,95815.63
2023-02-26T02:07:50.941Z,95820.34
2023-02-26T02:10:19.939Z,95823.50
2023-02-26T02:13:16.162Z,95825.80
2023-02-26T02:16:12.884Z,95830.52
2023-02-26T02:19:10.854Z,95836.96
2023-02-26T02:21:48.509Z,95841.48
2023-02-26T02:24:56.083Z,95839.30
2023-02-26T02:27:47.021Z,95835.73
2023-02-26T02:30:53.182Z,95839.30
2023-02-26T02:33:27.141Z,95847.36
2023-02-26T02:36:01.746Z,95848.97
2023-02-26T02:38:43.144Z,95857.46
2023-02-26T02:41:20.867Z,95852.56
2023-02-26T02:43:50.704Z,95844.89
2023-02-26T02:46:25.266Z,95845.82
2023-02-26T02:49:05.101Z,95848.38
2023-02-26T02:51:48.078Z,95845.70
2023-02-26T02:54:22.670Z,95844.38
2023-02-26T02:56:59.068Z,95846.63
2023-02-26T02:59:30.337Z,95842.60
2023-02-26T03:02:19.554Z,95838.23
2023-02-26T03:04:48.719Z,95834.81
2023-02-26T03:07:17.341Z,95830.45
2023-02-26T03:09:46.427Z,95834.08
2023-02-26T03:12:15.841Z,95835.13
2023-02-26T03:14:45.593Z,95828.99
2023-02-26T03:17:34.183Z,95835.51
2023-02-26T03:20:17.209Z,95857.70
2023-02-26T03:23:19.564Z,95854.13
2023-02-26T03:25:56.966Z,95857.12
2023-02-26T03:28:31.010Z,95854.31
2023-02-26T03:31:21.880Z,95857.24
2023-02-26T03:34:16.051Z,95850.65
2023-02-26T03:36:56.100Z,95854.16
2023-02-26T03:39:31.892Z,95861.16
2023-02-26T03:42:10.067Z,95864.55
2023-02-26T03:44:57.602Z,95857.89
2023-02-26T03:47:30.304Z,95866.95
2023-02-26T03:50:05.010Z,95871.99
2023-02-26T03:52:40.051Z,95861.48
2023-02-26T03:55:28.735Z,95865.40
2023-02-26T03:58:22.462Z,95869.73
2023-02-26T04:01:25.196Z,95868.25
2023-02-26T04:04:02.334Z,95871.85
2023-02-26T04:06:31.472Z,95868.20
2023-02-26T04:09:01.773Z,95862.23
2023-02-26T04:11:31.866Z,95860.54
2023-02-26T04:14:01.184Z,95860.92
2023-02-26T04:16:31.359Z,95855.84
2023-02-26T04:18:59.743Z,95854.84
2023-02-26T04:21:28.650Z,95860.49
2023-02-26T04:23:57.048Z,95854.44
2023-02-26T04:26:25.689Z,95845.15
2023-02-26T04:28:54.808Z,95848.80
2023-02-26T04:31:23.338Z,95849.27
2023-02-26T04:33:52.048Z,95852.87
2023-02-26T04:36:20.492Z,95851.09
2023-02-26T04:38:49.885Z,95847.69
2023-02-26T04:41:18.612Z,95839.96
2023-02-26T04:43:48.173Z,95841.35
2023-02-26T04:46:23.108Z,95851.46
2023-02-26T04:48:52.345Z,95852.65
2023-02-26T04:51:22.311Z,95854.79
2023-02-26T04:53:52.163Z,95860.45
2023-02-26T04:56:21.151Z,95864.60
2023-02-26T04:58:50.317Z,95865.32
2023-02-26T05:01:24.343Z,95866.91
2023-02-26T05:03:53.029Z,95868.31
2023-02-26T05:06:22.794Z,95872.69
2023-02-26T05:08:51.836Z,95874.40
2023-02-26T05:11:20.486Z,95872.84
2023-02-26T05:13:49.286Z,95876.94
2023-02-26T05:16:19.103Z,95878.59
2023-02-26T05:18:49.547Z,95880.84
2023-02-26T05:21:19.463Z,95882.64
2023-02-26T05:23:48.778Z,95887.88
2023-02-26T05:26:18.800Z,95880.88
2023-02-26T05:28:47.306Z,95880.44
2023-02-26T05:31:16.724Z,95876.33
2023-02-26T05:33:45.104Z,95884.55
2023-02-26T05:36:14.556Z,95885.66
2023-02-26T05:38:42.700Z,95887.29
2023-02-26T05:41:11.247Z,95888.02
2023-02-26T05:43:40.558Z,95886.69
2023-02-26T05:46:09.181Z,95885.84
2023-02-26T05:48:38.780Z,95884.97
2023-02-26T05:51:07.118Z,95887.20
2023-02-26T05:53:35.833Z,95886.73
2023-02-26T05:56:05.931Z,95889.63
2023-02-26T05:58:34.317Z,95890.16
2023-02-26T06:01:02.870Z,95895.34
2023-02-26T06:03:31.361Z,95893.69
2023-02-26T06:06:00.992Z,95891.93
2023-02-26T06:08:29.257Z,95895.74
2023-02-26T06:10:57.496Z,95898.82
2023-02-26T06:13:25.733Z,95904.09
2023-02-26T06:15:54.160Z,95899.35
2023-02-26T06:18:22.596Z,95904.14
2023-02-26T06:20:50.910Z,95908.45
2023-02-26T06:23:19.541Z,95908.15
2023-02-26T06:25:47.813Z,95907.61
2023-02-26T06:28:16.155Z,95911.56
2023-02-26T06:30:44.691Z,95910.53
2023-02-26T06:33:13.616Z,95912.77
2023-02-26T06:35:42.814Z,95917.55
2023-02-26T06:38:11.965Z,95917.05
2023-02-26T06:40:40.487Z,95923.47
2023-02-26T06:43:09.511Z,95927.11
2023-02-26T06:45:37.916Z,95921.66
2023-02-26T06:48:06.813Z,95916.34
2023-02-26T06:50:35.753Z,95922.05
2023-02-26T06:53:04.638Z,95919.07
2023-02-26T06:55:33.090Z,95926.11
2023-02-26T06:58:02.806Z,95932.48
2023-02-26T07:00:30.994Z,95931.42
2023-02-26T07:02:59.612Z,95928.85
2023-02-26T07:05:28.635Z,95925.88
2023-02-26T07:07:58.108Z,95928.16
2023-02-26T07:10:27.307Z,95931.93
2023-02-26T07:12:55.900Z,95936.39
2023-02-26T07:15:24.182Z,95937.10
2023-02-26T07:17:52.748Z,95937.66
2023-02-26T07:20:21.127Z,95936.27
2023-02-26T07:22:49.713Z,95940.55
2023-02-26T07:25:17.982Z,95941.20
2023-02-26T07:27:47.876Z,95943.02
2023-02-26T07:30:16.600Z,95947.41
2023-02-26T07:32:44.892Z,95952.72
2023-02-26T07:35:13.778Z,95956.37
2023-02-26T07:37:42.168Z,95963.44
2023-02-26T07:40:11.524Z,95968.38
2023-02-26T07:42:40.544Z,95969.63
2023-02-26T07:45:09.205Z,95972.55
2023-02-26T07:47:38.126Z,95975.63
2023-02-26T07:50:07.566Z,95974.30
2023-02-26T07:52:35.937Z,95968.79
2023-02-26T07:55:05.421Z,95970.60
2023-02-26T07:57:34.037Z,95973.38
2023-02-26T08:00:02.772Z,95970.56
2023-02-26T08:02:41.145Z,95969.95
2023-02-26T08:05:09.980Z,95975.55
2023-02-26T08:07:38.457Z,95978.02
2023-02-26T08:10:07.156Z,95976.61
2023-02-26T08:12:36.892Z,95976.98
2023-02-26T08:15:06.320Z,95975.91
2023-02-26T08:17:35.391Z,95977.24
2023-02-26T08:20:05.301Z,95974.48
2023-02-26T08:22:35.285Z,95973.21
2023-02-26T08:25:04.887Z,95971.79
2023-02-26T08:27:33.476Z,95979.45
2023-02-26T08:42:04.034Z,95983.66
2023-02-26T08:44:34.159Z,95985.35
2023-02-26T08:47:04.349Z,95987.85
2023-02-26T08:49:33.059Z,95983.94
2023-02-26T08:52:01.105Z,95989.44
2023-02-26T08:54:29.359Z,95995.33
2023-02-26T08:56:58.505Z,96003.38
2023-02-26T08:59:26.849Z,96010.44
2023-02-26T09:01:55.603Z,96010.45
2023-02-26T09:04:24.557Z,96013.32
2023-02-26T09:06:53.730Z,96014.62
2023-02-26T09:09:23.671Z,96022.20
2023-02-26T09:11:51.951Z,96022.98
2023-02-26T09:14:20.890Z,96025.84
2023-02-26T09:16:51.613Z,96021.70
2023-02-26T09:19:21.688Z,96024.04
2023-02-26T09:21:50.332Z,96024.20
2023-02-26T09:24:19.997Z,96028.98
2023-02-26T09:26:49.423Z,96035.11
2023-02-26T09:29:18.208Z,96038.95
2023-02-26T09:31:47.259Z,96039.30
2023-02-26T09:34:15.906Z,96039.19
2023-02-26T09:36:46.693Z,96042.71
2023-02-26T09:39:14.995Z,96048.29
2023-02-26T09:41:50.799Z,96051.27
2023-02-26T09:44:45.173Z,96050.11
2023-02-26T09:47:23.979Z,96054.00
2023-02-26T09:50:13.467Z,96049.14
2023-02-26T09:53:23.247Z,96054.90
2023-02-26T09:55:56.200Z,96058.98
2023-02-26T09:58:40.109Z,96054.36
2023-02-26T10:01:39.233Z,96050.52
2023-02-26T10:04:29.207Z,96043.34
2023-02-26T10:07:11.227Z,96054.98
2023-02-26T10:09:58.879Z,96052.81
2023-02-26T10:12:30.993Z,96048.56
2023-02-26T10:15:27.849Z,96055.01
2023-02-26T10:18:14.658Z,96067.69
2023-02-26T10:21:13.516Z,96075.30
2023-02-26T10:23:54.179Z,96071.03
2023-02-26T10:26:41.508Z,96071.37
2023-02-26T10:29:48.287Z,96076.12
2023-02-26T10:32:37.390Z,96079.22
2023-02-26T10:35:14.354Z,96081.42
2023-02-26T10:37:55.695Z,96083.36
2023-02-26T10:41:02.309Z,96084.51
2023-02-26T10:43:54.014Z,96082.39
2023-02-26T10:46:37.645Z,96086.00
2023-02-26T10:49:21.445Z,96086.80
2023-02-26T10:51:52.892Z,96079.52
2023-02-26T10:54:36.110Z,96083.70
2023-02-26T10:57:04.402Z,96083.64
2023-02-26T10:59:33.139Z,96082.48
2023-02-26T11:02:02.032Z,96087.79
2023-02-26T11:04:30.480Z,96092.13
2023-02-26T11:07:05.400Z,96094.78
2023-02-26T11:09:46.079Z,96095.15
2023-02-26T11:12:17.349Z,96095.43
2023-02-26T11:14:48.761Z,96096.47
2023-02-26T11:17:22.434Z,96094.24
2023-02-26T11:19:57.020Z,96094.83
2023-02-26T11:22:29.872Z,96097.48
2023-02-26T11:24:59.267Z,96097.54
2023-02-26T11:27:35.036Z,96100.31
2023-02-26T11:30:20.501Z,96100.20
2023-02-26T11:32:53.878Z,96112.08
2023-02-26T11:35:29.778Z,96115.27
2023-02-26T11:38:03.934Z,96116.80
2023-02-26T11:40:41.120Z,96112.72
2023-02-26T11:43:19.483Z,96114.14
2023-02-26T11:45:55.263Z,96112.42
2023-02-26T11:48:37.685Z,96118.45
2023-02-26T11:51:09.723Z,96118.49
2023-02-26T11:54:02.832Z,96118.52
2023-02-26T11:56:41.918Z,96120.13
2023-02-26T11:59:24.942Z,96121.52
2023-02-26T12:01:54.506Z,96123.16
2023-02-26T12:04:27.798Z,96121.08
2023-02-26T12:06:56.894Z,96121.01
2023-02-26T12:09:28.140Z,96124.39
2023-02-26T12:11:59.844Z,96125.27
2023-02-26T12:14:52.003Z,96127.56
2023-02-26T12:17:30.413Z,96135.30
2023-02-26T12:20:25.245Z,96138.44
2023-02-26T12:22:57.034Z,96139.02
2023-02-26T12:26:03.717Z,96141.32
2023-02-26T12:28:57.076Z,96147.50
2023-02-26T12:31:49.245Z,96148.19
2023-02-26T12:35:09.497Z,96155.37
2023-02-26T12:38:15.518Z,96154.24
2023-02-26T12:40:51.272Z,96160.90
2023-02-26T12:43:49.561Z,96159.61
2023-02-26T12:46:38.063Z,96157.17
2023-02-26T12:49:35.060Z,96152.67
2023-02-26T12:52:29.785Z,96152.59
2023-02-26T12:55:23.296Z,96148.95
2023-02-26T12:58:13.421Z,96161.81
2023-02-26T13:00:56.176Z,96163.89
2023-02-26T13:03:24.841Z,96169.66
2023-02-26T13:06:16.578Z,96170.77
2023-02-26T13:09:31.300Z,96168.09
2023-02-26T13:12:32.653Z,96178.15
2023-02-26T13:15:46.774Z,96186.27
2023-02-26T13:18:31.568Z,96190.82
2023-02-26T13:21:13.875Z,96192.21
2023-02-26T13:23:51.119Z,96200.66
2023-02-26T13:26:21.468Z,96209.54
2023-02-26T13:29:22.030Z,96211.21
2023-02-26T13:31:57.640Z,96213.39
2023-02-26T13:34:29.136Z,96219.06
2023-02-26T13:36:58.411Z,96223.48
2023-02-26T13:39:48.520Z,96223.30
2023-02-26T13:42:32.162Z,96221.57
2023-02-26T13:45:28.293Z,96222.64
2023-02-26T13:48:28.181Z,96226.79
2023-02-26T13:51:37.300Z,96231.34
2023-02-26T13:54:15.672Z,96239.22
2023-02-26T13:57:05.579Z,96242.21
2023-02-26T13:59:47.783Z,96246.04
2023-02-26T14:02:19.231Z,96247.48
2023-02-26T14:04:58.377Z,96251.34
2023-02-26T14:07:48.657Z,96250.36
2023-02-26T14:10:26.085Z,96258.92
2023-02-26T14:13:14.662Z,96263.73
2023-02-26T14:16:01.188Z,96264.11
2023-02-26T14:18:42.810Z,96266.31
2023-02-26T14:21:32.875Z,96271.01
2023-02-26T14:24:07.450Z,96276.89
2023-02-26T14:26:37.566Z,96277.40
2023-02-26T14:29:06.149Z,96277.98
2023-02-26T14:31:55.846Z,96282.11
2023-02-26T14:34:32.157Z,96282.40
2023-02-26T14:37:07.181Z,96289.44
2023-02-26T14:39:50.264Z,96293.54
2023-02-26T14:42:32.477Z,96293.79
2023-02-26T14:45:17.903Z,96297.95
2023-02-26T14:47:48.840Z,96299.56
2023-02-26T14:50:23.042Z,96300.04
2023-02-26T14:53:24.324Z,96301.77
2023-02-26T14:56:11.351Z,96299.30
2023-02-26T14:59:01.657Z,96307.24
2023-02-26T15:01:36.508Z,96306.94
2023-02-26T15:04:28.945Z,96313.95
2023-02-26T15:07:22.020Z,96322.74
2023-02-26T15:10:14.953Z,96325.98
2023-02-26T15:12:59.098Z,96325.39
2023-02-26T15:15:49.415Z,96327.98
2023-02-26T15:18:36.664Z,96328.54
2023-02-26T15:21:22.004Z,96330.46
2023-02-26T15:23:53.776Z,96327.64
2023-02-26T15:26:29.650Z,96332.91
2023-02-26T15:29:00.641Z,96337.06
2023-02-26T15:31:35.128Z,96346.54
2023-02-26T15:34:03.926Z,96353.02
2023-02-26T15:36:33.134Z,96353.08
2023-02-26T15:39:07.375Z,96354.54
2023-02-26T15:41:36.781Z,96359.01
2023-02-26T15:44:16.708Z,96364.40
2023-02-26T15:47:06.085Z,96367.92
2023-02-26T15:49:37.294Z,96372.11
2023-02-26T15:52:09.018Z,96374.59
2023-02-26T15:55:05.973Z,96375.82
2023-02-26T15:57:34.177Z,96378.08
2023-02-26T16:00:16.361Z,96383.50
2023-02-26T16:02:45.838Z,96385.77
2023-02-26T16:05:15.873Z,96393.34
2023-02-26T16:08:02.243Z,96397.78
2023-02-26T16:10:42.196Z,96400.17
2023-02-26T16:13:17.884Z,96403.15
2023-02-26T16:15:48.167Z,96408.17
2023-02-26T16:18:23.865Z,96417.07
2023-02-26T16:20:58.256Z,96423.15
2023-02-26T16:23:51.876Z,96420.61
2023-02-26T16:26:32.431Z,96421.33
2023-02-26T16:29:06.536Z,96420.85
2023-02-26T16:31:38.296Z,96422.73
2023-02-26T16:34:39.969Z,96425.13
2023-02-26T16:37:36.227Z,96430.92
2023-02-26T16:40:12.411Z,96429.88
2023-02-26T16:43:20.786Z,96437.17
2023-02-26T16:45:56.063Z,96444.33
2023-02-26T16:48:35.565Z,96448.35
2023-02-26T16:51:15.973Z,96447.95
2023-02-26T16:53:49.610Z,96447.55
2023-02-26T16:56:22.711Z,96448.16
2023-02-26T16:59:18.006Z,96448.19
2023-02-26T17:02:13.207Z,96447.20
2023-02-26T17:04:42.639Z,96447.75
2023-02-26T17:07:28.208Z,96446.48
2023-02-26T17:10:20.994Z,96448.33
2023-02-26T17:13:01.985Z,96447.46
2023-02-26T17:15:36.037Z,96447.05
2023-02-26T17:18:04.639Z,96445.84
2023-02-26T17:20:33.949Z,96450.59
2023-02-26T17:23:05.345Z,96448.33
2023-02-26T17:25:53.980Z,96449.42
2023-02-26T17:28:26.083Z,96453.33
2023-02-26T17:31:15.334Z,96451.13
2023-02-26T17:33:46.103Z,96453.54
2023-02-26T17:36:19.051Z,96460.69
2023-02-26T17:38:51.291Z,96462.36
2023-02-26T17:41:21.059Z,96458.86
2023-02-26T17:43:49.624Z,96457.61
2023-02-26T17:46:18.564Z,96457.25
2023-02-26T17:48:46.793Z,96458.09
2023-02-26T17:51:16.157Z,96467.14
2023-02-26T17:53:46.939Z,96473.12
2023-02-26T17:56:27.236Z,96482.02
2023-02-26T17:58:59.081Z,96487.14
2023-02-26T18:01:30.405Z,96486.43
2023-02-26T18:04:01.157Z,96489.17
2023-02-26T18:06:36.549Z,96489.61
2023-02-26T18:09:06.632Z,96482.05
2023-02-26T18:11:35.746Z,96485.83
2023-02-26T18:14:15.588Z,96487.88
2023-02-26T18:16:46.872Z,96486.48
2023-02-26T18:19:15.605Z,96483.02
2023-02-26T18:21:44.007Z,96480.89
2023-02-26T18:24:13.162Z,96481.65
2023-02-26T18:26:53.039Z,96480.27
2023-02-26T18:29:21.717Z,96479.30
2023-02-26T18:31:52.210Z,96477.52
2023-02-26T18:34:21.198Z,96476.34
2023-02-26T18:36:50.773Z,96475.65
2023-02-26T18:39:20.434Z,96479.11
2023-02-26T18:41:48.691Z,96481.85
2023-02-26T18:44:17.208Z,96480.17
2023-02-26T18:46:46.052Z,96480.21
2023-02-26T18:49:20.416Z,96474.61
2023-02-26T18:51:49.869Z,96474.41
2023-02-26T18:54:18.532Z,96478.70
2023-02-26T18:56:48.055Z,96479.95
2023-02-26T18:59:16.649Z,96480.61
2023-02-26T19:01:48.473Z,96482.71
2023-02-26T19:04:16.726Z,96480.48
2023-02-26T19:06:45.767Z,96480.24
2023-02-26T19:09:14.124Z,96481.38
2023-02-26T19:11:43.556Z,96479.72
2023-02-26T19:14:13.707Z,96481.22
2023-02-26T19:16:43.858Z,96483.17
2023-02-26T19:19:13.369Z,96488.54
2023-02-26T19:21:43.269Z,96489.23
2023-02-26T19:24:13.546Z,96490.30
2023-02-26T19:26:43.098Z,96493.42
2023-02-26T19:29:30.928Z,96494.27
2023-02-26T19:31:59.492Z,96493.73
2023-02-26T19:34:29.769Z,96494.94
2023-02-26T19:36:59.212Z,96495.27
2023-02-26T19:39:29.764Z,96495.39
2023-02-26T19:41:58.705Z,96491.27
2023-02-26T19:44:27.913Z,96494.05
2023-02-26T19:46:56.776Z,96493.52
2023-02-26T19:49:26.415Z,96494.38
2023-02-26T19:51:55.101Z,96495.20
2023-02-26T19:54:23.205Z,96499.31
2023-02-26T19:56:52.577Z,96502.20
2023-02-26T19:59:22.490Z,96497.94
2023-02-26T20:01:52.078Z,96501.54
2023-02-26T20:04:21.464Z,96498.28
2023-02-26T20:06:51.207Z,96503.92
2023-02-26T20:09:20.358Z,96505.98
2023-02-26T20:11:50.737Z,96506.93
2023-02-26T20:14:20.044Z,96508.39
2023-02-26T20:16:48.423Z,96510.27
2023-02-26T20:19:17.244Z,96504.81
2023-02-26T20:21:45.936Z,96505.70
2023-02-26T20:24:16.065Z,96504.66
2023-02-26T20:26:45.698Z,96506.20
2023-02-26T20:29:26.571Z,96511.23
2023-02-26T20:31:55.237Z,96515.70
2023-02-26T20:34:26.618Z,96522.64
2023-02-26T20:36:55.820Z,96528.09
2023-02-26T20:39:24.726Z,96522.23
2023-02-26T20:41:52.917Z,96526.36
2023-02-26T20:44:21.312Z,96528.90
2023-02-26T20:46:49.636Z,96519.19
2023-02-26T20:49:29.868Z,96518.14
2023-02-26T20:51:59.481Z,96516.85
2023-02-26T20:54:27.745Z,96518.77
2023-02-26T20:56:56.952Z,96516.06
2023-02-26T20:59:25.405Z,96515.50
2023-02-26T21:01:55.491Z,96515.59
2023-02-26T21:04:24.594Z,96510.55
2023-02-26T21:06:53.044Z,96507.31
2023-02-26T21:09:21.969Z,96505.81
2023-02-26T21:11:52.545Z,96504.30
2023-02-26T21:14:20.981Z,96504.83
2023-02-26T21:16:50.188Z,96501.98
2023-02-26T21:19:20.344Z,96500.50
2023-02-26T21:21:48.802Z,96503.16
2023-02-26T21:24:17.377Z,96507.69
2023-02-26T21:26:46.910Z,96514.46
2023-02-26T21:29:15.257Z,96513.53
2023-02-26T21:31:44.812Z,96503.65
2023-02-26T21:34:32.795Z,96493.28
2023-02-26T21:37:03.425Z,96487.55
2023-02-26T21:39:32.984Z,96487.27
2023-02-26T21:42:03.938Z,96491.85
2023-02-26T21:44:34.955Z,96492.95
2023-02-26T21:47:04.171Z,96501.48
2023-02-26T21:49:33.950Z,96503.41
2023-02-26T21:52:05.766Z,96507.02
2023-02-26T21:54:35.486Z,96514.88
2023-02-26T21:57:05.014Z,96516.24
2023-02-26T21:59:33.914Z,96518.35
2023-02-26T22:02:03.183Z,96521.54
2023-02-26T22:04:33.953Z,96519.42
2023-02-26T22:07:03.827Z,96525.11
2023-02-26T22:09:32.548Z,96527.91
2023-02-26T22:12:00.916Z,96529.71
2023-02-26T22:14:30.342Z,96528.86
2023-02-26T22:16:58.719Z,96526.66
2023-02-26T22:19:27.640Z,96530.27
2023-02-26T22:21:56.851Z,96526.17
2023-02-26T22:24:25.105Z,96530.27
2023-02-26T22:26:55.072Z,96526.54
2023-02-26T22:29:23.322Z,96527.48
2023-02-26T22:31:52.068Z,96527.02
2023-02-26T22:34:20.831Z,96525.86
2023-02-26T22:36:49.524Z,96526.42
2023-02-26T22:39:19.419Z,96532.35
2023-02-26T22:41:48.284Z,96536.93
2023-02-26T22:44:17.221Z,96543.08
2023-02-26T22:46:47.543Z,96540.39
2023-02-26T22:49:15.843Z,96542.20
2023-02-26T22:51:45.122Z,96549.09
2023-02-26T22:54:14.066Z,96552.55
2023-02-26T22:56:43.924Z,96547.54
2023-02-26T22:59:13.285Z,96545.02
2023-02-26T23:01:41.828Z,96541.59
2023-02-26T23:04:10.814Z,96546.43
2023-02-26T23:06:39.605Z,96538.77
2023-02-26T23:09:07.903Z,96536.59
2023-02-26T23:11:36.631Z,96540.73
2023-02-26T23:14:04.914Z,96546.95
2023-02-26T23:16:33.247Z,96542.54
2023-02-26T23:19:02.907Z,96539.16
2023-02-26T23:21:32.055Z,96540.40
2023-02-26T23:24:01.141Z,96538.20
2023-02-26T23:26:29.549Z,96535.33
2023-02-26T23:28:58.209Z,96532.45
2023-02-26T23:31:26.949Z,96535.76
2023-02-26T23:33:56.102Z,96539.96
2023-02-26T23:36:24.537Z,96536.77
2023-02-26T23:38:52.809Z,96538.70
2023-02-26T23:41:21.728Z,96536.41
2023-02-26T23:43:50.027Z,96540.88
2023-02-26T23:46:18.416Z,96538.35
2023-02-26T23:48:46.640Z,96537.73
2023-02-26T23:51:15.548Z,96539.84
2023-02-26T23:53:44.038Z,96543.80
2023-02-26T23:56:13.039Z,96541.92
2023-02-26T23:58:41.414Z,96539.39
